createdAt,value
2023-02-13T00:00:19.679Z,2.74
2023-02-13T00:02:46.336Z,2.86
2023-02-13T00:05:12.834Z,2.88
2023-02-13T00:07:39.447Z,2.97
2023-02-13T00:10:06.876Z,2.88
2023-02-13T00:12:35.837Z,2.72
2023-02-13T00:15:02.676Z,2.73
2023-02-13T00:17:29.336Z,2.71
2023-02-13T00:19:55.812Z,2.73
2023-02-13T00:22:22.289Z,2.70
2023-02-13T00:24:51.287Z,2.75
2023-02-13T00:27:20.162Z,2.70
2023-02-13T00:29:47.120Z,2.78
2023-02-13T00:32:14.868Z,2.68
2023-02-13T00:34:41.385Z,2.72
2023-02-13T00:37:07.851Z,2.75
2023-02-13T00:39:34.263Z,2.57
2023-02-13T00:42:00.721Z,2.54
2023-02-13T00:44:29.813Z,2.57
2023-02-13T00:46:56.264Z,2.63
2023-02-13T00:49:22.809Z,2.54
2023-02-13T00:51:51.612Z,2.41
2023-02-13T00:54:18.103Z,2.38
2023-02-13T00:56:44.577Z,2.41
2023-02-13T00:59:11.117Z,2.51
2023-02-13T01:01:37.720Z,2.51
2023-02-13T01:04:04.275Z,2.49
2023-02-13T01:06:30.772Z,2.41
2023-02-13T01:08:57.226Z,2.35
2023-02-13T01:11:23.828Z,2.44
2023-02-13T01:13:50.269Z,2.56
2023-02-13T01:16:17.893Z,2.54
2023-02-13T01:18:44.647Z,2.55
2023-02-13T01:21:17.721Z,2.62
2023-02-13T01:23:44.777Z,2.45
2023-02-13T01:26:16.660Z,2.38
2023-02-13T01:28:43.284Z,2.56
2023-02-13T01:31:09.844Z,2.46
2023-02-13T01:33:36.425Z,2.35
2023-02-13T01:36:11.028Z,2.23
2023-02-13T01:38:37.978Z,2.22
2023-02-13T01:41:04.613Z,2.22
2023-02-13T01:44:04.029Z,2.10
2023-02-13T01:46:30.556Z,2.13
2023-02-13T01:49:05.472Z,2.14
2023-02-13T01:51:35.262Z,2.11
2023-02-13T01:54:10.487Z,2.13
2023-02-13T01:56:50.369Z,2.20
2023-02-13T01:59:21.009Z,2.35
2023-02-13T02:01:48.042Z,2.19
2023-02-13T02:04:20.008Z,2.28
2023-02-13T02:06:51.955Z,2.37
2023-02-13T02:09:24.242Z,2.35
2023-02-13T02:11:56.555Z,2.36
2023-02-13T02:14:23.149Z,2.37
2023-02-13T02:16:49.646Z,2.34
2023-02-13T02:19:44.839Z,2.24
2023-02-13T02:22:49.273Z,2.15
2023-02-13T02:25:22.081Z,2.11
2023-02-13T02:28:03.134Z,2.07
2023-02-13T02:31:22.101Z,2.05
2023-02-13T02:33:57.517Z,2.01
2023-02-13T02:36:57.661Z,2.04
2023-02-13T02:39:38.064Z,1.98
2023-02-13T02:42:28.602Z,1.94
2023-02-13T02:45:01.413Z,1.92
2023-02-13T02:48:09.743Z,1.83
2023-02-13T02:50:43.665Z,1.89
2023-02-13T02:53:37.747Z,1.88
2023-02-13T02:56:15.100Z,1.94
2023-02-13T02:59:05.158Z,1.91
2023-02-13T03:01:53.013Z,1.89
2023-02-13T03:04:44.327Z,1.99
2023-02-13T03:07:14.975Z,2.00
2023-02-13T03:10:05.755Z,1.92
2023-02-13T03:13:06.794Z,1.88
2023-02-13T03:15:35.943Z,1.77
2023-02-13T03:18:20.854Z,2.01
2023-02-13T03:21:29.943Z,2.03
2023-02-13T03:24:09.879Z,1.91
2023-02-13T03:26:52.039Z,1.80
2023-02-13T03:29:52.460Z,1.82
2023-02-13T03:32:33.476Z,1.87
2023-02-13T03:35:27.853Z,1.85
2023-02-13T03:38:00.934Z,1.66
2023-02-13T03:40:59.708Z,1.75
2023-02-13T03:43:32.863Z,1.81
2023-02-13T03:46:02.485Z,1.76
2023-02-13T03:48:56.880Z,1.79
2023-02-13T03:51:53.534Z,1.74
2023-02-13T03:54:49.147Z,1.66
2023-02-13T03:57:38.517Z,1.57
2023-02-13T04:00:11.404Z,1.72
2023-02-13T04:02:45.171Z,1.95
2023-02-13T04:05:17.451Z,1.71
2023-02-13T04:07:44.631Z,1.89
2023-02-13T04:10:17.518Z,1.73
2023-02-13T04:12:59.139Z,1.83
2023-02-13T04:16:04.388Z,1.72
2023-02-13T04:18:33.083Z,1.72
2023-02-13T04:21:07.438Z,1.66
2023-02-13T04:23:36.044Z,1.76
2023-02-13T04:26:07.980Z,1.80
2023-02-13T04:28:34.615Z,1.64
2023-02-13T04:31:01.681Z,1.78
2023-02-13T04:33:28.560Z,1.87
2023-02-13T04:35:55.224Z,1.82
2023-02-13T04:38:21.795Z,1.72
2023-02-13T04:40:50.539Z,1.67
2023-02-13T04:43:17.095Z,1.66
2023-02-13T04:45:43.648Z,1.69
2023-02-13T04:48:10.249Z,1.77
2023-02-13T04:50:36.820Z,1.82
2023-02-13T04:53:03.405Z,1.77
2023-02-13T04:55:30.456Z,1.59
2023-02-13T04:57:57.249Z,1.69
2023-02-13T05:00:26.295Z,1.62
2023-02-13T05:02:52.976Z,1.69
2023-02-13T05:05:20.597Z,1.71
2023-02-13T05:07:47.127Z,1.71
2023-02-13T05:10:13.907Z,1.81
2023-02-13T05:12:40.474Z,1.74
2023-02-13T05:15:07.458Z,1.62
2023-02-13T05:17:33.984Z,1.65
2023-02-13T05:20:00.637Z,1.53
2023-02-13T05:22:48.273Z,1.61
2023-02-13T05:25:14.812Z,1.62
2023-02-13T05:27:41.422Z,1.49
2023-02-13T05:30:08.520Z,1.55
2023-02-13T05:32:35.058Z,1.49
2023-02-13T05:35:04.047Z,1.47
2023-02-13T05:37:34.011Z,1.56
2023-02-13T05:40:00.560Z,1.57
2023-02-13T05:42:27.247Z,1.40
2023-02-13T05:44:53.810Z,1.49
2023-02-13T05:47:20.365Z,1.54
2023-02-13T05:49:46.886Z,1.50
2023-02-13T05:52:13.537Z,1.34
2023-02-13T05:54:42.129Z,1.52
2023-02-13T05:57:08.754Z,1.44
2023-02-13T05:59:35.317Z,1.57
2023-02-13T06:02:01.840Z,1.47
2023-02-13T06:04:28.396Z,1.30
2023-02-13T06:06:54.933Z,1.37
2023-02-13T06:09:22.002Z,1.43
2023-02-13T06:11:48.943Z,1.44
2023-02-13T06:14:15.647Z,1.46
2023-02-13T06:16:42.505Z,1.38
2023-02-13T06:19:09.340Z,1.45
2023-02-13T06:21:38.005Z,1.47
2023-02-13T06:24:08.235Z,1.37
2023-02-13T06:26:35.224Z,1.33
2023-02-13T06:29:01.794Z,1.38
2023-02-13T06:31:30.684Z,1.34
2023-02-13T06:34:00.221Z,1.39
2023-02-13T06:36:26.794Z,1.49
2023-02-13T06:38:56.388Z,1.57
2023-02-13T06:41:23.006Z,1.54
2023-02-13T06:43:49.566Z,1.46
2023-02-13T06:46:16.102Z,1.53
2023-02-13T06:48:42.696Z,1.78
2023-02-13T06:51:09.260Z,1.62
2023-02-13T06:53:35.814Z,1.52
2023-02-13T06:56:06.311Z,1.54
2023-02-13T06:58:34.043Z,1.55
2023-02-13T07:01:00.888Z,1.50
2023-02-13T07:03:27.724Z,1.51
2023-02-13T07:05:57.034Z,1.54
2023-02-13T07:08:23.618Z,1.66
2023-02-13T07:10:52.394Z,1.58
2023-02-13T07:13:18.924Z,1.53
2023-02-13T07:15:45.932Z,1.55
2023-02-13T07:18:12.562Z,1.57
2023-02-13T07:20:39.303Z,1.61
2023-02-13T07:23:07.356Z,1.69
2023-02-13T07:25:34.280Z,1.55
2023-02-13T07:28:05.478Z,1.51
2023-02-13T07:30:33.005Z,1.56
2023-02-13T07:33:03.659Z,1.57
2023-02-13T07:35:30.929Z,1.50
2023-02-13T07:37:57.517Z,1.63
2023-02-13T07:40:24.058Z,1.56
2023-02-13T07:42:50.590Z,1.58
2023-02-13T07:45:17.269Z,1.56
2023-02-13T07:47:44.128Z,1.60
2023-02-13T07:50:14.165Z,1.71
2023-02-13T07:52:42.992Z,1.59
2023-02-13T07:55:11.604Z,1.56
2023-02-13T07:57:38.206Z,1.48
2023-02-13T08:00:05.484Z,1.60
2023-02-13T08:02:32.084Z,1.58
2023-02-13T08:04:58.616Z,1.66
2023-02-13T08:07:25.175Z,1.79
2023-02-13T08:10:10.259Z,1.64
2023-02-13T08:12:36.952Z,1.59
2023-02-13T08:15:04.209Z,1.60
2023-02-13T08:17:30.767Z,1.75
2023-02-13T08:19:57.739Z,1.82
2023-02-13T08:22:24.227Z,1.72
2023-02-13T08:24:50.733Z,1.77
2023-02-13T08:27:17.276Z,1.84
2023-02-13T08:29:43.941Z,2.04
2023-02-13T08:32:12.665Z,1.89
2023-02-13T08:34:42.530Z,1.95
2023-02-13T08:37:09.059Z,2.03
2023-02-13T08:39:35.566Z,2.07
2023-02-13T08:42:02.177Z,1.98
2023-02-13T08:44:28.852Z,1.81
2023-02-13T08:46:56.147Z,1.92
2023-02-13T08:49:23.535Z,2.01
2023-02-13T08:51:50.886Z,2.00
2023-02-13T08:54:17.481Z,2.10
2023-02-13T08:56:44.003Z,1.88
2023-02-13T08:59:10.438Z,2.19
2023-02-13T09:01:36.995Z,2.16
2023-02-13T09:04:03.604Z,2.19
2023-02-13T09:06:30.242Z,2.23
2023-02-13T09:08:56.709Z,2.06
2023-02-13T09:11:23.577Z,1.98
2023-02-13T09:13:53.382Z,2.11
2023-02-13T09:16:19.981Z,1.99
2023-02-13T09:18:51.132Z,2.10
2023-02-13T09:21:19.786Z,2.12
2023-02-13T09:23:46.316Z,2.40
2023-02-13T09:26:15.312Z,2.34
2023-02-13T09:28:42.888Z,2.17
2023-02-13T09:31:15.271Z,2.19
2023-02-13T09:33:45.200Z,2.43
2023-02-13T09:36:19.235Z,2.61
2023-02-13T09:38:47.529Z,2.68
2023-02-13T09:41:25.252Z,2.60
2023-02-13T09:44:36.375Z,2.53
2023-02-13T09:47:11.755Z,2.31
2023-02-13T09:49:44.127Z,2.58
2023-02-13T09:52:10.773Z,2.73
2023-02-13T09:54:39.868Z,2.56
2023-02-13T09:57:31.376Z,2.47
2023-02-13T10:00:23.967Z,2.52
2023-02-13T10:02:56.514Z,2.63
2023-02-13T10:05:57.669Z,2.56
2023-02-13T10:09:12.845Z,2.61
2023-02-13T10:11:45.509Z,2.65
2023-02-13T10:14:18.641Z,2.79
2023-02-13T10:16:55.802Z,2.66
2023-02-13T10:19:37.263Z,2.63
2023-02-13T10:22:23.523Z,2.83
2023-02-13T10:25:20.486Z,2.99
2023-02-13T10:27:52.497Z,2.88
2023-02-13T10:30:22.349Z,2.77
2023-02-13T10:33:19.411Z,2.78
2023-02-13T10:35:59.353Z,2.80
2023-02-13T10:38:35.921Z,3.03
2023-02-13T10:41:24.058Z,3.26
2023-02-13T10:44:07.943Z,3.11
2023-02-13T10:46:41.530Z,3.16
2023-02-13T10:49:57.233Z,3.08
2023-02-13T10:52:43.573Z,3.19
2023-02-13T10:55:40.960Z,2.98
2023-02-13T10:58:26.140Z,3.37
2023-02-13T11:01:00.630Z,3.36
2023-02-13T11:03:29.524Z,3.35
2023-02-13T11:05:58.199Z,3.20
2023-02-13T11:08:39.801Z,3.38
2023-02-13T11:11:39.932Z,3.55
2023-02-13T11:14:14.466Z,3.48
2023-02-13T11:17:09.730Z,3.39
2023-02-13T11:19:51.567Z,3.27
2023-02-13T11:22:42.454Z,3.36
2023-02-13T11:25:31.179Z,3.37
2023-02-13T11:28:19.336Z,3.48
2023-02-13T11:30:45.833Z,3.44
2023-02-13T11:33:23.059Z,3.47
2023-02-13T11:35:49.550Z,3.82
2023-02-13T11:38:16.080Z,3.80
2023-02-13T11:40:45.096Z,3.56
2023-02-13T11:43:35.283Z,3.84
2023-02-13T11:46:04.835Z,3.78
2023-02-13T11:48:34.110Z,3.97
2023-02-13T11:51:01.174Z,3.80
2023-02-13T11:53:31.692Z,3.76
2023-02-13T11:56:11.830Z,3.72
2023-02-13T11:58:39.212Z,4.02
2023-02-13T12:01:10.403Z,4.13
2023-02-13T12:03:38.746Z,3.81
2023-02-13T12:06:12.971Z,3.97
2023-02-13T12:08:41.404Z,3.86
2023-02-13T12:11:31.157Z,4.03
2023-02-13T12:13:58.136Z,4.38
2023-02-13T12:16:40.208Z,4.21
2023-02-13T12:19:13.194Z,4.30
2023-02-13T12:21:50.150Z,4.35
2023-02-13T12:24:19.627Z,4.19
2023-02-13T12:26:52.379Z,4.42
2023-02-13T12:29:57.231Z,4.21
2023-02-13T12:32:35.392Z,4.04
2023-02-13T12:35:47.486Z,4.21
2023-02-13T12:38:33.594Z,4.18
2023-02-13T12:41:18.814Z,4.14
2023-02-13T12:44:26.311Z,4.24
2023-02-13T12:47:06.805Z,4.18
2023-02-13T12:49:48.137Z,4.38
2023-02-13T12:52:33.200Z,4.31
2023-02-13T12:55:30.238Z,4.17
2023-02-13T12:58:05.774Z,4.23
2023-02-13T13:00:45.904Z,4.30
2023-02-13T13:03:34.388Z,4.38
2023-02-13T13:06:19.670Z,4.48
2023-02-13T13:09:13.605Z,4.57
2023-02-13T13:11:43.111Z,4.57
2023-02-13T13:14:23.942Z,4.64
2023-02-13T13:17:02.059Z,4.63
2023-02-13T13:19:56.865Z,4.63
2023-02-13T13:22:27.885Z,4.52
2023-02-13T13:25:14.301Z,4.47
2023-02-13T13:27:45.541Z,4.44
2023-02-13T13:30:28.788Z,4.38
2023-02-13T13:33:04.980Z,4.67
2023-02-13T13:35:37.877Z,4.66
2023-02-13T13:38:25.369Z,4.62
2023-02-13T13:41:18.085Z,4.58
2023-02-13T13:44:15.027Z,4.63
2023-02-13T13:46:58.458Z,4.58
2023-02-13T13:49:34.188Z,4.77
2023-02-13T13:52:21.618Z,4.77
2023-02-13T13:54:54.245Z,4.84
2023-02-13T13:57:24.551Z,4.77
2023-02-13T14:00:10.489Z,4.74
2023-02-13T14:02:52.124Z,4.82
2023-02-13T14:05:27.419Z,5.04
2023-02-13T14:08:06.361Z,4.96
2023-02-13T14:10:33.078Z,4.68
2023-02-13T14:13:02.626Z,4.79
2023-02-13T14:15:38.200Z,4.70
2023-02-13T14:18:19.161Z,4.79
2023-02-13T14:20:51.628Z,4.69
2023-02-13T14:23:36.581Z,4.75
2023-02-13T14:26:15.133Z,4.61
2023-02-13T14:28:57.123Z,4.61
2023-02-13T14:31:28.956Z,4.57
2023-02-13T14:33:58.319Z,4.58
2023-02-13T14:36:32.262Z,4.73
2023-02-13T14:39:22.999Z,4.59
2023-02-13T14:41:55.333Z,4.39
2023-02-13T14:44:37.384Z,4.46
2023-02-13T14:47:35.130Z,4.51
2023-02-13T14:50:04.867Z,4.41
2023-02-13T14:52:46.515Z,4.49
2023-02-13T14:55:34.327Z,4.27
2023-02-13T14:58:07.685Z,4.28
2023-02-13T15:00:43.093Z,4.37
2023-02-13T15:03:25.066Z,4.47
2023-02-13T15:05:54.368Z,4.41
2023-02-13T15:08:24.134Z,4.26
2023-02-13T15:10:53.471Z,4.27
2023-02-13T15:13:33.179Z,4.10
2023-02-13T15:16:05.333Z,4.09
2023-02-13T15:18:40.831Z,4.05
2023-02-13T15:21:18.711Z,4.15
2023-02-13T15:23:55.521Z,3.97
2023-02-13T15:26:24.346Z,4.13
2023-02-13T15:29:25.930Z,4.15
2023-02-13T15:31:56.193Z,4.00
2023-02-13T15:34:24.680Z,3.88
2023-02-13T15:36:52.165Z,3.87
2023-02-13T15:39:23.936Z,3.98
2023-02-13T15:41:58.161Z,3.97
2023-02-13T15:44:36.671Z,3.82
2023-02-13T15:47:09.809Z,3.86
2023-02-13T15:49:43.537Z,3.93
2023-02-13T15:52:15.437Z,3.86
2023-02-13T15:54:49.579Z,3.93
2023-02-13T15:57:16.772Z,3.76
2023-02-13T15:59:43.648Z,3.78
2023-02-13T16:02:47.814Z,3.69
2023-02-13T16:05:17.137Z,3.88
2023-02-13T16:07:53.650Z,3.87
2023-02-13T16:10:36.648Z,3.64
2023-02-13T16:13:05.805Z,3.59
2023-02-13T16:15:36.638Z,3.50
2023-02-13T16:18:04.072Z,3.70
2023-02-13T16:20:34.117Z,3.67
2023-02-13T16:23:21.087Z,3.50
2023-02-13T16:25:48.718Z,3.40
2023-02-13T16:28:19.875Z,3.55
2023-02-13T16:30:57.109Z,3.46
2023-02-13T16:33:28.448Z,3.40
2023-02-13T16:36:00.417Z,3.36
2023-02-13T16:38:35.933Z,3.33
2023-02-13T16:41:04.375Z,3.36
2023-02-13T16:43:38.735Z,3.41
2023-02-13T16:46:20.069Z,3.41
2023-02-13T16:49:01.894Z,3.34
2023-02-13T16:51:36.719Z,3.45
2023-02-13T16:54:15.733Z,3.46
2023-02-13T16:56:47.073Z,3.57
2023-02-13T16:59:38.338Z,3.53
2023-02-13T17:02:14.400Z,3.48
2023-02-13T17:05:05.327Z,3.51
2023-02-13T17:07:36.338Z,3.51
2023-02-13T17:10:07.012Z,3.58
2023-02-13T17:12:37.445Z,3.66
2023-02-13T17:15:05.120Z,3.63
2023-02-13T17:17:34.862Z,3.54
2023-02-13T17:20:04.108Z,3.63
2023-02-13T17:22:40.258Z,3.44
2023-02-13T17:25:15.851Z,3.33
2023-02-13T17:27:43.063Z,3.38
2023-02-13T17:30:15.439Z,3.29
2023-02-13T17:32:42.537Z,3.36
2023-02-13T17:35:11.261Z,3.31
2023-02-13T17:37:38.508Z,3.27
2023-02-13T17:40:05.682Z,3.25
2023-02-13T17:42:36.327Z,3.25
2023-02-13T17:45:02.906Z,3.34
2023-02-13T17:47:30.446Z,3.12
2023-02-13T17:50:08.269Z,3.14
2023-02-13T17:52:35.711Z,3.26
2023-02-13T17:55:04.882Z,3.26
2023-02-13T17:57:31.386Z,3.19
2023-02-13T17:59:59.193Z,3.16
2023-02-13T18:02:27.200Z,3.19
2023-02-13T18:04:53.771Z,3.15
2023-02-13T18:07:22.881Z,3.22
2023-02-13T18:09:49.454Z,3.15
2023-02-13T18:12:19.063Z,3.20
2023-02-13T18:14:45.882Z,3.32
2023-02-13T18:17:12.641Z,3.26
2023-02-13T18:19:39.600Z,3.16
2023-02-13T18:22:07.854Z,3.25
2023-02-13T18:24:36.522Z,3.24
2023-02-13T18:27:05.490Z,3.20
2023-02-13T18:29:32.011Z,3.36
2023-02-13T18:31:58.583Z,3.38
2023-02-13T18:34:25.179Z,3.26
2023-02-13T18:36:51.828Z,3.22
2023-02-13T18:39:20.875Z,3.24
2023-02-13T18:41:50.400Z,3.18
2023-02-13T18:44:27.007Z,3.06
2023-02-13T18:46:54.508Z,3.14
2023-02-13T18:49:21.026Z,3.14
2023-02-13T18:51:47.600Z,3.04
2023-02-13T18:54:14.165Z,2.99
2023-02-13T18:56:40.635Z,2.96
2023-02-13T18:59:07.164Z,2.99
2023-02-13T19:01:35.365Z,2.92
2023-02-13T19:04:02.938Z,2.93
2023-02-13T19:06:32.442Z,2.92
2023-02-13T19:08:59.564Z,2.92
2023-02-13T19:11:27.167Z,2.87
2023-02-13T19:14:00.444Z,2.97
2023-02-13T19:16:29.278Z,3.01
2023-02-13T19:18:58.711Z,2.99
2023-02-13T19:21:28.348Z,3.01
2023-02-13T19:23:55.568Z,3.12
2023-02-13T19:26:24.240Z,3.00
2023-02-13T19:28:51.101Z,2.98
2023-02-13T19:31:24.996Z,2.98
2023-02-13T19:33:52.318Z,2.90
2023-02-13T19:36:21.422Z,2.84
2023-02-13T19:38:52.776Z,2.92
2023-02-13T19:41:19.362Z,2.97
2023-02-13T19:43:53.591Z,2.95
2023-02-13T19:46:26.879Z,2.94
2023-02-13T19:48:55.867Z,2.95
2023-02-13T19:51:25.209Z,3.03
2023-02-13T19:53:59.051Z,2.91
2023-02-13T19:56:27.423Z,2.91
2023-02-13T19:58:56.501Z,3.08
2023-02-13T20:01:25.340Z,2.98
2023-02-13T20:03:52.613Z,2.90
2023-02-13T20:06:33.373Z,2.82
2023-02-13T20:09:02.082Z,3.08
2023-02-13T20:11:31.186Z,2.97
2023-02-13T20:14:01.715Z,3.00
2023-02-13T20:16:32.807Z,2.89
2023-02-13T20:19:01.755Z,2.81
2023-02-13T20:21:28.228Z,3.06
2023-02-13T20:23:54.639Z,3.12
2023-02-13T20:26:21.273Z,3.11
2023-02-13T20:28:48.233Z,3.29
2023-02-13T20:31:16.449Z,3.13
2023-02-13T20:33:46.629Z,2.98
2023-02-13T20:36:19.501Z,3.00
2023-02-13T20:38:46.196Z,3.03
2023-02-13T20:41:15.870Z,3.04
2023-02-13T20:43:42.999Z,3.08
2023-02-13T20:46:10.414Z,3.02
2023-02-13T20:48:37.732Z,3.01
2023-02-13T20:51:07.407Z,2.97
2023-02-13T20:53:34.882Z,3.15
2023-02-13T20:56:13.366Z,3.17
2023-02-13T20:58:41.701Z,3.00
2023-02-13T21:01:18.314Z,2.98
2023-02-13T21:03:47.841Z,3.03
2023-02-13T21:06:14.520Z,3.10
2023-02-13T21:08:43.140Z,3.04
2023-02-13T21:11:11.951Z,3.17
2023-02-13T21:13:40.199Z,3.23
2023-02-13T21:16:14.328Z,3.19
2023-02-13T21:18:42.118Z,3.15
2023-02-13T21:21:10.867Z,3.06
2023-02-13T21:23:39.817Z,3.21
2023-02-13T21:26:13.115Z,3.17
2023-02-13T21:28:40.880Z,3.31
2023-02-13T21:31:08.672Z,3.18
2023-02-13T21:33:35.265Z,3.07
2023-02-13T21:36:03.495Z,3.20
2023-02-13T21:38:30.169Z,3.22
2023-02-13T21:41:06.601Z,3.21
2023-02-13T21:43:37.684Z,3.14
2023-02-13T21:46:13.701Z,3.17
2023-02-13T21:48:41.209Z,3.08
2023-02-13T21:51:10.463Z,3.08
2023-02-13T21:53:37.699Z,3.04
2023-02-13T21:56:10.772Z,3.06
2023-02-13T21:58:39.520Z,3.08
2023-02-13T22:01:25.945Z,3.06
2023-02-13T22:04:00.314Z,3.05
2023-02-13T22:06:30.284Z,3.31
2023-02-13T22:09:02.278Z,3.01
2023-02-13T22:11:29.094Z,2.98
2023-02-13T22:13:57.195Z,2.98
2023-02-13T22:16:23.940Z,3.00
2023-02-13T22:18:50.681Z,3.18
2023-02-13T22:21:19.501Z,3.17
2023-02-13T22:23:47.322Z,3.06
2023-02-13T22:26:23.996Z,3.21
2023-02-13T22:28:51.877Z,3.27
2023-02-13T22:31:19.138Z,3.26
2023-02-13T22:33:55.324Z,3.19
2023-02-13T22:36:29.278Z,3.07
2023-02-13T22:38:55.815Z,3.03
2023-02-13T22:41:26.753Z,3.04
2023-02-13T22:43:53.558Z,3.00
2023-02-13T22:46:23.348Z,3.12
2023-02-13T22:48:53.249Z,3.03
2023-02-13T22:51:31.685Z,3.04
2023-02-13T22:53:59.204Z,3.05
2023-02-13T22:56:26.817Z,3.14
2023-02-13T22:58:53.613Z,3.10
2023-02-13T23:01:22.134Z,3.07
2023-02-13T23:03:51.350Z,2.99
2023-02-13T23:06:18.502Z,2.93
2023-02-13T23:08:45.262Z,2.90
2023-02-13T23:11:33.406Z,3.00
2023-02-13T23:14:00.247Z,2.96
2023-02-13T23:16:27.508Z,2.99
2023-02-13T23:18:56.580Z,2.83
2023-02-13T23:21:24.067Z,2.76
2023-02-13T23:23:50.970Z,2.78
2023-02-13T23:26:17.526Z,2.88
2023-02-13T23:28:44.003Z,2.81
2023-02-13T23:31:10.628Z,2.70
2023-02-13T23:33:37.146Z,2.81
2023-02-13T23:36:03.860Z,2.81
2023-02-13T23:38:30.548Z,2.88
2023-02-13T23:40:57.272Z,2.90
2023-02-13T23:43:23.909Z,2.81
2023-02-13T23:45:50.361Z,2.83
2023-02-13T23:48:16.856Z,2.75
2023-02-13T23:50:47.385Z,2.78
2023-02-13T23:53:14.120Z,2.75
2023-02-13T23:55:40.577Z,2.66
2023-02-13T23:58:07.019Z,2.76
